createdAt,value
2023-01-29T00:04:13.674Z,0
2023-01-29T00:09:33.034Z,0
2023-01-29T00:14:52.691Z,0
2023-01-29T00:20:12.144Z,0
2023-01-29T00:25:31.510Z,0
2023-01-29T00:30:50.561Z,0
2023-01-29T00:36:09.756Z,0
2023-01-29T00:41:28.802Z,0
2023-01-29T00:46:47.835Z,0
2023-01-29T00:52:06.845Z,0
2023-01-29T00:57:26.342Z,0
2023-01-29T01:02:46.616Z,0
2023-01-29T01:08:06.127Z,0
2023-01-29T01:13:24.978Z,0
2023-01-29T01:19:59.193Z,0
2023-01-29T01:24:05.082Z,0
2023-01-29T01:29:24.037Z,0
2023-01-29T01:34:43.420Z,0
2023-01-29T01:40:03.183Z,0
2023-01-29T01:45:22.033Z,0
2023-01-29T01:50:41.396Z,0
2023-01-29T01:56:00.572Z,0
2023-01-29T02:01:20.009Z,0
2023-01-29T02:06:38.868Z,0
2023-01-29T02:11:57.844Z,0
2023-01-29T02:17:16.901Z,0
2023-01-29T02:22:36.515Z,0
2023-01-29T02:27:56.171Z,0
2023-01-29T02:33:15.610Z,0
2023-01-29T02:38:35.269Z,0
2023-01-29T02:43:54.232Z,0
2023-01-29T02:49:13.148Z,0
2023-01-29T02:54:32.298Z,0
2023-01-29T02:59:51.640Z,0
2023-01-29T03:05:11.104Z,0
2023-01-29T03:10:28.818Z,0
2023-01-29T03:15:47.778Z,0
2023-01-29T03:21:07.264Z,0
2023-01-29T03:26:26.629Z,0
2023-01-29T03:31:45.959Z,0
2023-01-29T03:37:04.716Z,0
2023-01-29T03:42:24.216Z,0
2023-01-29T03:47:43.433Z,0
2023-01-29T03:53:02.737Z,0
2023-01-29T03:58:21.641Z,0
2023-01-29T04:04:55.852Z,0
2023-01-29T04:09:01.718Z,0
2023-01-29T04:14:21.696Z,0
2023-01-29T04:19:41.127Z,0
2023-01-29T04:25:00.792Z,0
2023-01-29T04:30:20.233Z,0
2023-01-29T04:35:39.331Z,0
2023-01-29T04:40:58.541Z,0
2023-01-29T04:46:17.625Z,0
2023-01-29T04:51:36.693Z,0
2023-01-29T04:56:55.731Z,0
2023-01-29T05:02:14.644Z,0
2023-01-29T05:07:33.447Z,0
2023-01-29T05:12:52.293Z,0
2023-01-29T05:18:11.768Z,0
2023-01-29T05:23:31.203Z,0
2023-01-29T05:28:50.831Z,0
2023-01-29T05:34:10.029Z,0
2023-01-29T05:39:28.880Z,0
2023-01-29T05:44:48.128Z,0
2023-01-29T05:50:06.469Z,0
2023-01-29T05:55:25.534Z,0
2023-01-29T06:00:44.948Z,0
2023-01-29T06:06:04.515Z,0
2023-01-29T06:11:23.682Z,0
2023-01-29T06:16:43.233Z,0
2023-01-29T06:23:17.403Z,0
2023-01-29T06:27:23.181Z,0
2023-01-29T06:32:42.811Z,0
2023-01-29T06:38:02.273Z,0
2023-01-29T06:43:21.995Z,0.0018
2023-01-29T06:48:41.222Z,0.012
2023-01-29T06:54:00.732Z,0.0179
2023-01-29T06:59:19.941Z,0.0215
2023-01-29T07:04:39.178Z,0.0245
2023-01-29T07:09:58.723Z,0.0253
2023-01-29T07:15:18.333Z,0.0289
2023-01-29T07:20:37.310Z,0.0335
2023-01-29T07:25:56.677Z,0.0331
2023-01-29T07:31:16.175Z,0.0364
2023-01-29T07:36:35.796Z,0.0371
2023-01-29T07:41:55.523Z,0.0428
2023-01-29T07:47:16.389Z,0.0452
2023-01-29T07:52:34.452Z,0.0503
2023-01-29T07:57:54.217Z,0.0541
2023-01-29T08:03:13.235Z,0.0547
2023-01-29T08:08:32.939Z,0.0691
2023-01-29T08:13:51.210Z,0.0784
2023-01-29T08:19:10.062Z,0.0903
2023-01-29T08:24:35.996Z,0.0998
2023-01-29T08:29:48.762Z,0.0947
2023-01-29T08:35:08.338Z,0.109
2023-01-29T08:40:27.304Z,0.1257
2023-01-29T08:45:46.834Z,0.117
2023-01-29T08:51:06.567Z,0.1419
2023-01-29T08:56:25.989Z,0.1177
2023-01-29T09:01:45.444Z,0.1484
2023-01-29T09:07:05.191Z,0.1538
2023-01-29T09:17:43.613Z,0.1758
2023-01-29T09:23:02.790Z,0.1883
2023-01-29T09:28:22.498Z,0.2857
2023-01-29T09:33:41.805Z,0.3726
2023-01-29T09:39:01.419Z,0.3799
2023-01-29T09:39:27.568Z,0.3827
2023-01-29T09:50:06.087Z,0.3922
2023-01-29T09:55:25.376Z,0.3784
2023-01-29T10:00:44.578Z,0.3241
2023-01-29T10:06:04.257Z,0.3082
2023-01-29T10:16:42.688Z,0.2973
2023-01-29T10:22:02.373Z,0.2774
2023-01-29T10:27:21.482Z,0.3168
2023-01-29T10:32:41.255Z,0.2801
2023-01-29T10:38:00.564Z,0.2606
2023-01-29T10:43:19.969Z,0.2993
2023-01-29T10:48:39.319Z,0.2888
2023-01-29T10:53:58.667Z,0.2915
2023-01-29T10:59:17.926Z,0.2544
2023-01-29T11:04:37.400Z,0.2585
2023-01-29T11:15:15.363Z,0.2964
2023-01-29T11:20:34.783Z,0.2993
2023-01-29T11:31:14.128Z,0.2512
2023-01-29T11:36:33.421Z,0.2629
2023-01-29T11:41:52.278Z,0.3454
2023-01-29T11:47:11.479Z,0.2942
2023-01-29T11:57:50.372Z,0.4739
2023-01-29T12:03:09.357Z,0.4749
2023-01-29T12:08:28.815Z,0.445
2023-01-29T12:15:03.048Z,0.4862
2023-01-29T12:19:07.976Z,0.3598
2023-01-29T12:24:27.551Z,0.3209
2023-01-29T12:29:46.384Z,0.2532
2023-01-29T12:35:05.292Z,0.2865
2023-01-29T12:41:39.473Z,0.2888
2023-01-29T12:45:45.000Z,0.3314
2023-01-29T12:56:24.407Z,0.2955
2023-01-29T13:01:43.258Z,0.3946
2023-01-29T13:07:02.423Z,0.2811
2023-01-29T13:12:22.005Z,0.2924
2023-01-29T13:17:41.625Z,0.2428
2023-01-29T13:23:00.805Z,0.192
2023-01-29T13:28:19.656Z,0.1547
2023-01-29T13:38:57.864Z,0.1914
2023-01-29T13:44:17.269Z,0.1658
2023-01-29T13:49:36.835Z,0.2235
2023-01-29T13:54:56.521Z,0.2136
2023-01-29T14:00:15.989Z,0.1853
2023-01-29T14:06:50.178Z,0.1798
2023-01-29T14:10:55.329Z,0.1937
2023-01-29T14:16:14.975Z,0.1685
2023-01-29T14:21:34.440Z,0.1747
2023-01-29T14:26:53.805Z,0.1794
2023-01-29T14:39:10.933Z,0.125
2023-01-29T14:42:52.838Z,0.0975
2023-01-29T14:48:12.433Z,0.115
2023-01-29T14:53:31.330Z,0.1131
2023-01-29T14:58:50.519Z,0.0708
2023-01-29T15:04:12.043Z,0.0931
2023-01-29T15:09:36.284Z,0.0905
2023-01-29T15:20:09.192Z,0.0834
2023-01-29T15:25:28.702Z,0.0621
2023-01-29T15:30:47.969Z,0.0462
2023-01-29T15:39:21.014Z,0.0141
2023-01-29T15:46:43.924Z,0.0187
2023-01-29T15:57:21.679Z,0.0441
2023-01-29T16:02:41.037Z,0.041
2023-01-29T16:08:00.156Z,0.0341
2023-01-29T16:13:19.315Z,0.0304
2023-01-29T16:18:41.012Z,0.0267
2023-01-29T16:23:57.969Z,0.0155
2023-01-29T16:29:17.012Z,0.0066
2023-01-29T16:39:54.986Z,0
2023-01-29T16:45:15.185Z,0
2023-01-29T16:51:48.942Z,0
2023-01-29T16:55:54.636Z,0
2023-01-29T17:01:14.208Z,0
2023-01-29T17:06:33.067Z,0
2023-01-29T17:11:52.050Z,0
2023-01-29T17:22:30.901Z,0
2023-01-29T17:27:50.683Z,0
2023-01-29T17:33:10.457Z,0
2023-01-29T17:38:30.345Z,0
2023-01-29T17:43:49.533Z,0
2023-01-29T17:49:08.850Z,0
2023-01-29T17:54:28.324Z,0
2023-01-29T18:05:06.797Z,0
2023-01-29T18:10:25.800Z,0
2023-01-29T18:15:45.430Z,0
2023-01-29T18:21:05.000Z,0
2023-01-29T18:26:24.337Z,0
2023-01-29T18:31:44.111Z,0
2023-01-29T18:37:02.940Z,0
2023-01-29T18:47:41.334Z,0
2023-01-29T18:53:00.237Z,0
2023-01-29T18:58:28.360Z,0
2023-01-29T19:03:38.472Z,0
2023-01-29T19:08:57.425Z,0
2023-01-29T19:14:16.380Z,0
2023-01-29T19:19:35.755Z,0
2023-01-29T19:30:14.313Z,0
2023-01-29T19:35:34.193Z,0
2023-01-29T19:46:13.335Z,0
2023-01-29T19:51:32.669Z,0
2023-01-29T19:56:52.503Z,0
2023-01-29T20:02:12.111Z,0
2023-01-29T20:12:50.828Z,0
2023-01-29T20:18:10.177Z,0
2023-01-29T20:23:37.471Z,0
2023-01-29T20:28:48.067Z,0
2023-01-29T20:34:07.789Z,0
2023-01-29T20:39:26.874Z,0
2023-01-29T20:44:45.750Z,0
2023-01-29T20:55:24.602Z,0
2023-01-29T21:00:44.338Z,0
2023-01-29T21:06:03.295Z,0
2023-01-29T21:11:22.548Z,0
2023-01-29T21:16:42.058Z,0
2023-01-29T21:22:01.621Z,0
2023-01-29T21:27:21.245Z,0
2023-01-29T21:32:41.021Z,0
2023-01-29T21:38:00.557Z,0
2023-01-29T21:43:20.047Z,0
2023-01-29T21:53:58.772Z,0
2023-01-29T21:59:18.614Z,0
2023-01-29T22:04:37.692Z,0
2023-01-29T22:09:57.276Z,0
2023-01-29T22:15:16.148Z,0
2023-01-29T22:20:35.895Z,0
2023-01-29T22:31:13.003Z,0
2023-01-29T22:36:32.406Z,0
2023-01-29T22:41:51.698Z,0
2023-01-29T22:47:10.692Z,0
2023-01-29T22:52:29.714Z,0
2023-01-29T22:57:49.171Z,0
2023-01-29T23:03:08.592Z,0
2023-01-29T23:13:48.240Z,0
2023-01-29T23:19:07.196Z,0
2023-01-29T23:24:26.030Z,0
2023-01-29T23:29:45.763Z,0
2023-01-29T23:40:24.351Z,0
2023-01-29T23:45:44.158Z,0
2023-01-29T23:57:37.851Z,0
